Time;durP1;ratioP1;P1;durP2;ratioP2;P2;SDS_P1;SDS_P2;PMS_P1;PMS_P2;Temp;Humidity;BMP_temperature;BMP_pressure;BME280_temperature;BME280_humidity;BME280_pressure;Samples;Min_cycle;Max_cycle;Signal;HPM_P1;HPM_P2
2022/04/03 00:01:54;;;;;;;28.10;18.80;;;-1.50;99.90;;;;;;4931405;28;20057;-61
2022/04/03 00:04:24;;;;;;;30.50;19.50;;;-1.50;99.90;;;;;;4929992;28;20379;-61
2022/04/03 00:06:51;;;;;;;30.67;20.05;;;-1.50;99.90;;;;;;4915441;28;20163;-61
2022/04/03 00:09:18;;;;;;;27.20;19.60;;;-1.50;99.90;;;;;;4930990;28;20042;-60
2022/04/03 00:11:45;;;;;;;28.77;20.10;;;-1.50;99.90;;;;;;4934579;28;20057;-62
2022/04/03 00:14:12;;;;;;;32.92;20.30;;;-1.50;99.90;;;;;;4932495;28;20829;-61
2022/04/03 00:16:39;;;;;;;31.00;20.77;;;-1.50;99.90;;;;;;4934120;28;20370;-62
2022/04/03 00:19:07;;;;;;;31.17;21.70;;;-1.50;99.90;;;;;;4933325;28;20231;-61
2022/04/03 00:21:38;;;;;;;34.47;22.58;;;-1.50;99.90;;;;;;4935105;28;20724;-61
2022/04/03 00:24:06;;;;;;;30.85;21.80;;;-1.50;99.90;;;;;;4935123;28;20544;-61
2022/04/03 00:26:33;;;;;;;29.90;20.98;;;-1.50;99.90;;;;;;4919792;28;20312;-62
2022/04/03 00:29:00;;;;;;;33.33;21.52;;;-1.50;99.90;;;;;;4930568;28;20045;-61
2022/04/03 00:31:26;;;;;;;33.75;21.75;;;-1.50;99.90;;;;;;4931777;28;20578;-62
2022/04/03 00:33:53;;;;;;;30.08;20.33;;;-1.50;99.90;;;;;;4932191;28;20498;-61
2022/04/03 00:36:20;;;;;;;30.38;19.98;;;-1.50;99.90;;;;;;4930580;28;20286;-61
2022/04/03 00:38:48;;;;;;;30.70;21.55;;;-1.50;99.90;;;;;;4930145;28;20143;-61
2022/04/03 00:41:18;;;;;;;36.13;23.67;;;-1.50;99.90;;;;;;4930394;28;20042;-61
2022/04/03 00:43:45;;;;;;;30.35;21.42;;;-1.40;99.90;;;;;;4932176;28;20057;-61
2022/04/03 00:46:17;;;;;;;32.40;21.65;;;-1.50;99.90;;;;;;4932949;28;20555;-61
2022/04/03 00:48:47;;;;;;;29.75;21.63;;;-1.50;99.90;;;;;;4928794;28;20064;-61
2022/04/03 00:51:14;;;;;;;35.35;22.13;;;-1.50;99.90;;;;;;4942079;28;20042;-61
2022/04/03 00:53:41;;;;;;;39.53;24.73;;;-1.40;99.90;;;;;;4933293;28;20542;-61
2022/04/03 00:56:09;;;;;;;32.38;22.67;;;-1.40;99.90;;;;;;4933847;28;20513;-61
2022/04/03 00:58:38;;;;;;;33.90;23.63;;;-1.40;99.90;;;;;;4931345;28;20132;-61
2022/04/03 01:01:05;;;;;;;31.73;22.65;;;-1.40;99.90;;;;;;4927849;28;20583;-61
2022/04/03 01:03:32;;;;;;;33.78;24.63;;;-1.40;99.90;;;;;;4930913;28;20579;-61
2022/04/03 01:05:59;;;;;;;30.83;21.50;;;-1.40;99.90;;;;;;4933598;28;20053;-61
2022/04/03 01:08:27;;;;;;;39.70;25.15;;;-1.40;99.90;;;;;;4935388;28;20593;-60
2022/04/03 01:10:54;;;;;;;33.80;22.88;;;-1.40;99.90;;;;;;4930897;28;20106;-61
2022/04/03 01:13:21;;;;;;;40.08;26.83;;;-1.40;99.90;;;;;;4931587;28;20061;-61
2022/04/03 01:15:59;;;;;;;36.70;25.85;;;-1.40;99.90;;;;;;4928167;28;20034;-61
2022/04/03 01:18:27;;;;;;;34.25;25.08;;;-1.40;99.90;;;;;;4930128;28;20221;-61
2022/04/03 01:20:54;;;;;;;36.05;24.45;;;-1.40;99.90;;;;;;4933244;28;20053;-60
2022/04/03 01:23:23;;;;;;;43.70;27.65;;;-1.40;99.90;;;;;;4933559;28;20057;-61
2022/04/03 01:25:50;;;;;;;38.58;27.23;;;-1.40;99.90;;;;;;4927760;28;20232;-61
2022/04/03 01:28:17;;;;;;;34.78;24.08;;;-1.40;99.90;;;;;;4928095;28;20046;-61
2022/04/03 01:30:44;;;;;;;33.58;24.40;;;-1.30;99.90;;;;;;4930878;28;20680;-61
2022/04/03 01:33:12;;;;;;;36.10;25.67;;;-1.30;99.90;;;;;;4928129;28;20862;-61
2022/04/03 01:35:38;;;;;;;34.13;22.85;;;-1.30;99.90;;;;;;4931533;28;20836;-60
2022/04/03 01:38:06;;;;;;;37.58;24.35;;;-1.30;99.90;;;;;;4932267;28;20137;-61
2022/04/03 01:40:35;;;;;;;31.00;22.27;;;-1.30;99.90;;;;;;4930342;28;20053;-61
2022/04/03 01:43:04;;;;;;;33.00;22.08;;;-1.30;99.90;;;;;;4928264;28;20038;-61
2022/04/03 01:45:31;;;;;;;36.28;24.58;;;-1.30;99.90;;;;;;4928731;28;20794;-61
2022/04/03 01:47:59;;;;;;;38.65;25.80;;;-1.30;99.90;;;;;;4928645;28;20615;-61
2022/04/03 01:50:27;;;;;;;39.63;27.40;;;-1.30;99.90;;;;;;4928696;28;20053;-60
2022/04/03 01:52:53;;;;;;;37.28;25.08;;;-1.30;99.90;;;;;;4914076;28;20038;-61
2022/04/03 01:55:21;;;;;;;37.20;25.58;;;-1.30;99.90;;;;;;4913301;28;20046;-61
2022/04/03 01:57:48;;;;;;;37.30;25.13;;;-1.30;99.90;;;;;;4931932;28;20042;-61
2022/04/03 02:00:15;;;;;;;37.08;25.52;;;-1.30;99.90;;;;;;4929064;28;20046;-60
2022/04/03 02:02:42;;;;;;;36.22;23.90;;;-1.30;99.90;;;;;;4929711;28;20061;-61
2022/04/03 02:05:09;;;;;;;39.10;26.75;;;-1.30;99.90;;;;;;4928505;28;20828;-61
2022/04/03 02:07:37;;;;;;;35.65;25.60;;;-1.30;99.90;;;;;;4926313;28;20370;-60
2022/04/03 02:10:08;;;;;;;37.80;26.20;;;-1.30;99.90;;;;;;4928722;28;20239;-61
2022/04/03 02:12:36;;;;;;;38.38;24.50;;;-1.30;99.90;;;;;;4930323;28;20717;-61
2022/04/03 02:15:05;;;;;;;37.83;25.85;;;-1.30;99.90;;;;;;4930367;28;20053;-61
2022/04/03 02:17:32;;;;;;;40.55;27.00;;;-1.30;99.90;;;;;;4928068;28;20065;-60
2022/04/03 02:19:59;;;;;;;40.35;28.38;;;-1.30;99.90;;;;;;4928578;28;20049;-61
2022/04/03 02:22:26;;;;;;;41.60;28.60;;;-1.30;99.90;;;;;;4930992;28;20817;-61
2022/04/03 02:24:53;;;;;;;40.92;27.95;;;-1.30;99.90;;;;;;4934656;28;20394;-60
2022/04/03 02:27:21;;;;;;;46.38;29.10;;;-1.30;99.90;;;;;;4932438;28;20057;-61
2022/04/03 02:29:48;;;;;;;44.28;30.17;;;-1.30;99.90;;;;;;4934194;28;20574;-60
2022/04/03 02:32:16;;;;;;;45.88;30.30;;;-1.40;99.90;;;;;;4932912;28;20204;-61
2022/04/03 02:34:43;;;;;;;41.70;28.75;;;-1.40;99.90;;;;;;4931126;28;20274;-61
2022/04/03 02:37:11;;;;;;;45.97;28.88;;;-1.40;99.90;;;;;;4918081;28;20247;-61
2022/04/03 02:39:38;;;;;;;40.83;28.63;;;-1.40;99.90;;;;;;4932706;28;20117;-61
2022/04/03 02:42:05;;;;;;;45.45;30.42;;;-1.40;99.90;;;;;;4932764;28;20663;-61
2022/04/03 02:44:32;;;;;;;46.47;30.65;;;-1.40;99.90;;;;;;4934234;28;20042;-60
2022/04/03 02:46:59;;;;;;;48.45;31.10;;;-1.40;99.90;;;;;;4930972;28;20378;-61
2022/04/03 02:49:26;;;;;;;44.40;29.58;;;-1.40;99.90;;;;;;4934163;28;20053;-60
2022/04/03 02:51:53;;;;;;;44.92;29.77;;;-1.40;99.90;;;;;;4933490;28;20563;-61
2022/04/03 02:54:20;;;;;;;45.88;30.67;;;-1.40;99.90;;;;;;4947638;28;20050;-60
2022/04/03 02:56:47;;;;;;;45.47;30.52;;;-1.40;99.90;;;;;;4931634;28;20352;-61
2022/04/03 02:59:14;;;;;;;46.03;29.00;;;-1.40;99.90;;;;;;4932461;28;20038;-60
2022/04/03 03:01:41;;;;;;;47.80;31.25;;;-1.40;99.90;;;;;;4932852;28;20669;-61
2022/04/03 03:04:08;;;;;;;50.35;34.05;;;-1.40;99.90;;;;;;4932265;28;20261;-61
2022/04/03 03:06:35;;;;;;;46.40;30.35;;;-1.40;99.90;;;;;;4933678;28;20594;-60
2022/04/03 03:09:02;;;;;;;50.47;33.42;;;-1.40;99.90;;;;;;4932297;28;20347;-61
2022/04/03 03:11:30;;;;;;;45.60;31.88;;;-1.40;99.90;;;;;;4933587;28;20341;-60
2022/04/03 03:13:56;;;;;;;50.80;32.10;;;-1.40;99.90;;;;;;4933627;28;20880;-60
2022/04/03 03:16:23;;;;;;;49.15;32.80;;;-1.40;99.90;;;;;;4931365;28;20141;-61
2022/04/03 03:18:50;;;;;;;48.17;32.38;;;-1.40;99.90;;;;;;4932551;28;20300;-60
2022/04/03 03:21:17;;;;;;;47.42;31.42;;;-1.40;99.90;;;;;;4935078;28;20602;-60
2022/04/03 03:23:44;;;;;;;49.55;31.10;;;-1.40;99.90;;;;;;4936057;28;20462;-61
2022/04/03 03:26:11;;;;;;;52.83;33.38;;;-1.40;99.90;;;;;;4934816;28;20128;-60
2022/04/03 03:28:38;;;;;;;52.70;34.13;;;-1.40;99.90;;;;;;4937104;28;20046;-61
2022/04/03 03:31:05;;;;;;;48.95;32.50;;;-1.40;99.90;;;;;;4931359;28;20046;-60
2022/04/03 03:33:33;;;;;;;50.72;33.17;;;-1.40;99.90;;;;;;4934455;28;20517;-60
2022/04/03 03:36:01;;;;;;;49.83;33.00;;;-1.40;99.90;;;;;;4933748;28;20300;-60
2022/04/03 03:38:28;;;;;;;47.17;32.40;;;-1.50;99.90;;;;;;4931030;28;20057;-60
2022/04/03 03:40:55;;;;;;;47.97;31.77;;;-1.50;99.90;;;;;;4930524;28;20117;-60
2022/04/03 03:43:21;;;;;;;52.60;34.80;;;-1.50;99.90;;;;;;4932687;28;20769;-61
2022/04/03 03:45:48;;;;;;;45.72;31.13;;;-1.40;99.90;;;;;;4934434;28;20057;-61
2022/04/03 03:48:15;;;;;;;50.03;32.60;;;-1.50;99.90;;;;;;4932238;28;20382;-60
2022/04/03 03:50:43;;;;;;;53.53;34.80;;;-1.40;99.90;;;;;;4934788;28;20069;-60
2022/04/03 03:53:10;;;;;;;51.70;33.25;;;-1.40;99.90;;;;;;4935047;28;20454;-60
2022/04/03 03:55:37;;;;;;;49.33;33.42;;;-1.40;99.90;;;;;;4929181;28;20045;-61
2022/04/03 03:58:04;;;;;;;49.05;32.65;;;-1.50;99.90;;;;;;4933200;28;20603;-60
2022/04/03 04:00:31;;;;;;;52.35;34.08;;;-1.50;99.90;;;;;;4932931;28;20046;-60
2022/04/03 04:02:58;;;;;;;50.15;33.15;;;-1.40;99.90;;;;;;4936031;28;20043;-60
2022/04/03 04:05:26;;;;;;;50.58;33.17;;;-1.40;99.90;;;;;;4929930;28;20046;-60
2022/04/03 04:07:52;;;;;;;55.75;34.13;;;-1.50;99.90;;;;;;4935595;28;20047;-61
2022/04/03 04:10:19;;;;;;;49.67;33.50;;;-1.50;99.90;;;;;;4930159;28;20769;-61
2022/04/03 04:12:47;;;;;;;53.08;34.35;;;-1.40;99.90;;;;;;4930692;28;20038;-61
2022/04/03 04:15:15;;;;;;;53.88;34.03;;;-1.50;99.90;;;;;;4932261;28;20046;-60
2022/04/03 04:17:45;;;;;;;55.15;33.92;;;-1.40;99.90;;;;;;4927946;28;20410;-60
2022/04/03 04:20:17;;;;;;;65.70;37.65;;;-1.40;99.90;;;;;;4932331;28;20034;-60
2022/04/03 04:22:46;;;;;;;49.03;32.38;;;-1.40;99.90;;;;;;4933893;28;20046;-59
2022/04/03 04:25:14;;;;;;;56.60;35.63;;;-1.40;99.90;;;;;;4928736;28;20038;-60
2022/04/03 04:27:41;;;;;;;51.40;32.47;;;-1.40;99.90;;;;;;4930548;28;20820;-60
2022/04/03 04:30:09;;;;;;;53.40;33.25;;;-1.40;99.90;;;;;;4931970;28;20084;-59
2022/04/03 04:32:36;;;;;;;57.50;35.20;;;-1.40;99.90;;;;;;4933308;28;20215;-59
2022/04/03 04:35:04;;;;;;;50.95;33.65;;;-1.40;99.90;;;;;;4931952;28;20286;-59
2022/04/03 04:37:32;;;;;;;56.05;36.28;;;-1.40;99.90;;;;;;4935879;28;20050;-59
2022/04/03 04:39:59;;;;;;;53.90;34.00;;;-1.40;99.90;;;;;;4927482;28;20921;-60
2022/04/03 04:42:27;;;;;;;57.40;36.20;;;-1.50;99.90;;;;;;4932952;28;20046;-60
2022/04/03 04:44:54;;;;;;;57.50;36.15;;;-1.40;99.90;;;;;;4932851;28;20042;-60
2022/04/03 04:47:21;;;;;;;49.08;32.42;;;-1.50;99.90;;;;;;4932157;28;20049;-60
2022/04/03 04:49:48;;;;;;;51.90;33.95;;;-1.50;99.90;;;;;;4928719;28;20054;-60
2022/04/03 04:52:16;;;;;;;54.13;34.45;;;-1.40;99.90;;;;;;4932521;28;20041;-60
2022/04/03 04:54:43;;;;;;;49.17;32.60;;;-1.40;99.90;;;;;;4935490;28;20365;-59
2022/04/03 04:57:10;;;;;;;54.53;35.25;;;-1.40;99.90;;;;;;4930164;28;20038;-61
2022/04/03 04:59:37;;;;;;;52.88;33.63;;;-1.50;99.90;;;;;;4932914;28;20429;-60
2022/04/03 05:02:06;;;;;;;53.38;35.97;;;-1.50;99.90;;;;;;4930113;28;20141;-60
2022/04/03 05:04:34;;;;;;;55.20;35.35;;;-1.50;99.90;;;;;;4931773;28;20977;-60
2022/04/03 05:07:04;;;;;;;56.97;36.75;;;-1.50;99.90;;;;;;4932370;28;20748;-60
2022/04/03 05:09:31;;;;;;;53.42;34.67;;;-1.50;99.90;;;;;;4932493;28;20115;-60
2022/04/03 05:11:59;;;;;;;52.85;32.78;;;-1.50;99.90;;;;;;4933647;28;20316;-60
2022/04/03 05:14:27;;;;;;;47.90;32.03;;;-1.50;99.90;;;;;;4929344;28;20042;-60
2022/04/03 05:16:54;;;;;;;49.67;32.63;;;-1.50;99.90;;;;;;4931078;28;20296;-60
2022/04/03 05:19:26;;;;;;;48.53;32.88;;;-1.50;99.90;;;;;;4930522;28;21615;-59
2022/04/03 05:21:53;;;;;;;52.40;33.67;;;-1.50;99.90;;;;;;4931160;28;20732;-60
2022/04/03 05:24:20;;;;;;;47.90;32.38;;;-1.50;99.90;;;;;;4930521;28;20105;-60
2022/04/03 05:26:47;;;;;;;48.67;32.85;;;-1.50;99.90;;;;;;4931174;28;20630;-61
2022/04/03 05:29:14;;;;;;;52.53;34.38;;;-1.40;99.90;;;;;;4930358;28;20057;-60
2022/04/03 05:31:41;;;;;;;54.10;33.75;;;-1.40;99.90;;;;;;4928582;28;20121;-61
2022/04/03 05:34:09;;;;;;;52.47;35.30;;;-1.40;99.90;;;;;;4930776;28;20137;-60
2022/04/03 05:36:36;;;;;;;49.95;33.63;;;-1.40;99.90;;;;;;4929860;28;20057;-60
2022/04/03 05:39:04;;;;;;;54.95;35.47;;;-1.30;99.90;;;;;;4931177;28;20049;-60
2022/04/03 05:41:32;;;;;;;56.13;36.38;;;-1.30;99.90;;;;;;4929067;28;20050;-61
2022/04/03 05:44:01;;;;;;;51.55;33.13;;;-1.30;99.90;;;;;;4915378;28;20065;-61
2022/04/03 05:46:29;;;;;;;52.15;34.50;;;-1.20;99.90;;;;;;4926507;28;20195;-60
2022/04/03 05:48:56;;;;;;;45.63;31.90;;;-1.20;99.90;;;;;;4928804;28;20114;-60
2022/04/03 05:51:23;;;;;;;48.35;32.22;;;-1.10;99.90;;;;;;4930248;28;20626;-59
2022/04/03 05:53:50;;;;;;;44.60;30.38;;;-1.10;99.90;;;;;;4930850;28;20563;-59
2022/04/03 05:56:17;;;;;;;45.65;30.67;;;-1.10;99.90;;;;;;4932322;28;20035;-60
2022/04/03 05:58:43;;;;;;;48.80;32.35;;;-1.00;99.90;;;;;;4929695;28;20039;-61
2022/04/03 06:01:10;;;;;;;49.75;32.88;;;-1.00;99.90;;;;;;4932474;28;20128;-60
2022/04/03 06:03:38;;;;;;;48.33;33.17;;;-1.00;99.90;;;;;;4930452;28;20116;-61
2022/04/03 06:06:05;;;;;;;46.40;31.23;;;-1.00;99.90;;;;;;4931346;28;20049;-60
2022/04/03 06:08:32;;;;;;;49.88;34.47;;;-1.00;99.90;;;;;;4934377;28;20564;-61
2022/04/03 06:10:59;;;;;;;48.85;32.45;;;-1.00;99.90;;;;;;4931330;28;20401;-61
2022/04/03 06:13:26;;;;;;;53.78;34.80;;;-1.00;99.90;;;;;;4933452;28;20262;-58
2022/04/03 06:15:53;;;;;;;48.78;32.75;;;-1.00;99.90;;;;;;4931057;28;20780;-55
2022/04/03 06:18:21;;;;;;;44.60;31.38;;;-1.00;99.90;;;;;;4927261;28;20053;-53
2022/04/03 06:20:48;;;;;;;46.95;31.27;;;-1.00;99.90;;;;;;4927294;28;20072;-55
2022/04/03 06:23:19;;;;;;;49.75;33.33;;;-0.90;99.90;;;;;;4930783;28;20132;-54
2022/04/03 06:25:47;;;;;;;44.92;30.08;;;-0.90;99.90;;;;;;4930766;28;20256;-57
2022/04/03 06:28:15;;;;;;;40.38;27.40;;;-0.90;99.90;;;;;;4927027;28;20042;-55
2022/04/03 06:30:43;;;;;;;36.00;24.85;;;-0.90;99.90;;;;;;4928572;28;20038;-53
2022/04/03 06:33:10;;;;;;;39.17;26.38;;;-0.90;99.90;;;;;;4945716;28;20119;-60
2022/04/03 06:35:38;;;;;;;35.08;23.92;;;-0.90;99.90;;;;;;4935066;28;20112;-59
2022/04/03 06:38:11;;;;;;;33.33;23.95;;;-0.90;99.90;;;;;;4932330;28;20588;-59
2022/04/03 06:40:44;;;;;;;31.02;22.10;;;-0.90;99.90;;;;;;4928635;28;20039;-56
2022/04/03 06:43:12;;;;;;;33.22;22.58;;;-0.90;99.90;;;;;;4926584;28;20153;-55
2022/04/03 06:45:39;;;;;;;31.50;21.63;;;-0.80;99.90;;;;;;4930912;28;20607;-55
2022/04/03 06:48:06;;;;;;;33.58;21.77;;;-0.80;99.90;;;;;;4928139;28;20280;-54
2022/04/03 06:50:33;;;;;;;30.67;22.70;;;-0.70;99.90;;;;;;4930328;28;20425;-55
2022/04/03 06:53:00;;;;;;;35.63;23.50;;;-0.70;99.90;;;;;;4929158;28;20042;-54
2022/04/03 06:55:27;;;;;;;36.20;25.35;;;-0.60;99.90;;;;;;4929780;28;20435;-55
2022/04/03 06:57:54;;;;;;;37.65;27.15;;;-0.60;99.90;;;;;;4926976;28;20351;-55
2022/04/03 07:00:21;;;;;;;41.65;28.92;;;-0.50;99.90;;;;;;4929967;28;20565;-53
2022/04/03 07:02:49;;;;;;;39.35;28.90;;;-0.50;99.90;;;;;;4932522;28;20799;-58
2022/04/03 07:05:16;;;;;;;32.95;24.00;;;-0.50;99.90;;;;;;4897044;28;20121;-54
2022/04/03 07:07:43;;;;;;;33.88;25.25;;;-0.50;99.90;;;;;;4924140;28;20949;-59
2022/04/03 07:10:10;;;;;;;34.72;24.85;;;-0.60;99.90;;;;;;4913076;28;20061;-60
2022/04/03 07:12:38;;;;;;;37.08;25.58;;;-0.60;99.90;;;;;;4927868;28;20042;-60
2022/04/03 07:15:12;;;;;;;34.90;24.08;;;-0.60;99.90;;;;;;4919894;28;20532;-54
2022/04/03 07:17:43;;;;;;;35.53;23.95;;;-0.70;99.90;;;;;;4932217;28;20046;-57
2022/04/03 07:20:13;;;;;;;30.77;23.45;;;-0.80;99.90;;;;;;4915386;28;20046;-56
2022/04/03 07:22:41;;;;;;;33.65;23.63;;;-0.90;99.90;;;;;;4927729;28;20771;-54
2022/04/03 07:25:10;;;;;;;32.55;22.17;;;-0.90;99.90;;;;;;4930293;28;20386;-57
2022/04/03 07:27:37;;;;;;;34.13;22.95;;;-0.90;99.90;;;;;;4934419;28;20057;-56
2022/04/03 07:30:06;;;;;;;35.38;24.27;;;-0.80;99.90;;;;;;4919343;28;20050;-53
2022/04/03 07:32:37;;;;;;;30.85;23.02;;;-0.80;99.90;;;;;;4909817;28;20046;-54
2022/04/03 07:35:05;;;;;;;33.03;23.30;;;-0.60;99.90;;;;;;4925620;28;20038;-54
2022/04/03 07:37:32;;;;;;;39.13;25.15;;;-0.50;99.90;;;;;;4931170;28;20034;-54
2022/04/03 07:40:03;;;;;;;36.13;24.70;;;-0.30;99.90;;;;;;4930672;28;20053;-55
2022/04/03 07:42:30;;;;;;;34.40;22.70;;;0.00;99.90;;;;;;4928619;28;20058;-54
2022/04/03 07:44:57;;;;;;;31.35;21.48;;;0.10;99.90;;;;;;4933801;28;20204;-54
2022/04/03 07:47:25;;;;;;;29.42;21.15;;;0.20;99.90;;;;;;4936523;28;20046;-56
2022/04/03 07:49:52;;;;;;;30.88;21.98;;;0.20;99.90;;;;;;4931508;28;20595;-57
2022/04/03 07:52:19;;;;;;;31.90;22.05;;;0.20;99.90;;;;;;4933112;28;20192;-61
2022/04/03 07:54:46;;;;;;;30.25;21.15;;;0.30;99.90;;;;;;4929414;28;20057;-56
2022/04/03 07:57:16;;;;;;;30.10;20.10;;;0.40;99.90;;;;;;4928305;28;20035;-56
2022/04/03 07:59:43;;;;;;;29.42;20.48;;;0.50;99.90;;;;;;4930802;28;20038;-55
2022/04/03 08:02:10;;;;;;;29.73;21.40;;;0.60;99.90;;;;;;4930033;28;20042;-56
2022/04/03 08:04:37;;;;;;;27.73;20.30;;;0.60;99.90;;;;;;4928092;28;20057;-55
2022/04/03 08:07:04;;;;;;;28.88;20.23;;;0.60;99.90;;;;;;4931274;28;20499;-53
2022/04/03 08:09:31;;;;;;;26.75;19.75;;;0.60;99.90;;;;;;4926932;28;20050;-56
2022/04/03 08:11:58;;;;;;;30.58;20.65;;;0.70;99.90;;;;;;4931447;28;20132;-57
2022/04/03 08:14:27;;;;;;;28.23;20.15;;;0.90;99.90;;;;;;4930451;28;20042;-53
2022/04/03 08:16:55;;;;;;;26.40;20.02;;;1.00;99.90;;;;;;4933737;28;20415;-56
2022/04/03 08:19:22;;;;;;;28.10;21.23;;;1.00;99.90;;;;;;4928910;28;20724;-54
2022/04/03 08:21:49;;;;;;;26.30;20.17;;;1.00;99.90;;;;;;4936504;28;20220;-53
2022/04/03 08:24:16;;;;;;;25.80;18.73;;;1.00;99.90;;;;;;4949110;28;20849;-59
2022/04/03 08:26:45;;;;;;;25.73;19.27;;;1.00;99.90;;;;;;4952395;28;20782;-57
2022/04/03 08:29:12;;;;;;;26.40;19.40;;;1.00;99.90;;;;;;4952983;28;20041;-63
2022/04/03 08:31:39;;;;;;;28.83;20.25;;;1.00;99.90;;;;;;4948234;28;20416;-56
2022/04/03 08:34:06;;;;;;;26.10;20.15;;;1.00;99.90;;;;;;4950019;28;20342;-60
2022/04/03 08:36:53;;;;;;;30.67;21.55;;;1.00;99.90;;;;;;4949637;28;20822;-58
2022/04/03 08:39:20;;;;;;;27.75;21.40;;;1.30;99.90;;;;;;4944012;28;20038;-58
2022/04/03 08:41:47;;;;;;;28.80;20.17;;;1.70;99.90;;;;;;4931895;28;20330;-57
2022/04/03 08:44:13;;;;;;;28.40;20.02;;;2.00;99.90;;;;;;4932358;28;20042;-55
2022/04/03 08:46:46;;;;;;;26.27;19.98;;;2.00;99.90;;;;;;4929629;28;20298;-57
2022/04/03 08:49:19;;;;;;;25.38;18.55;;;2.00;99.90;;;;;;4916996;28;20050;-58
2022/04/03 08:51:47;;;;;;;26.60;19.48;;;2.30;99.90;;;;;;4934701;28;20042;-57
2022/04/03 08:54:16;;;;;;;22.63;17.33;;;2.50;99.90;;;;;;4926236;28;20141;-57
2022/04/03 08:56:43;;;;;;;26.63;20.02;;;2.70;99.90;;;;;;4928700;28;20207;-57
2022/04/03 08:59:10;;;;;;;21.92;18.20;;;2.80;99.90;;;;;;4928310;28;20816;-61
2022/04/03 09:01:37;;;;;;;23.88;17.77;;;3.00;99.90;;;;;;4929384;28;20441;-58
2022/04/03 09:04:05;;;;;;;21.75;16.85;;;3.10;99.90;;;;;;4933716;28;20035;-56
2022/04/03 09:06:32;;;;;;;23.60;17.25;;;3.20;99.90;;;;;;4930643;28;20200;-57
2022/04/03 09:09:01;;;;;;;18.92;15.25;;;3.50;99.90;;;;;;4929919;28;20211;-57
2022/04/03 09:11:29;;;;;;;20.85;15.40;;;3.80;99.90;;;;;;4931575;28;20378;-57
2022/04/03 09:13:57;;;;;;;22.85;16.30;;;4.10;99.90;;;;;;4933886;28;20038;-57
2022/04/03 09:16:40;;;;;;;20.88;15.93;;;4.40;99.90;;;;;;4927236;28;20992;-56
2022/04/03 09:19:08;;;;;;;18.38;15.13;;;4.80;99.90;;;;;;4934538;28;20557;-57
2022/04/03 09:21:35;;;;;;;19.45;14.98;;;5.20;99.90;;;;;;4928855;28;20038;-57
2022/04/03 09:24:11;;;;;;;21.85;15.57;;;5.60;99.90;;;;;;4932580;28;20287;-57
2022/04/03 09:26:42;;;;;;;19.13;14.43;;;5.90;99.90;;;;;;4930086;28;20046;-57
2022/04/03 09:29:18;;;;;;;18.60;15.77;;;6.10;99.90;;;;;;4930205;28;20188;-57
2022/04/03 09:31:46;;;;;;;21.50;15.75;;;6.30;99.90;;;;;;4931704;28;20200;-57
2022/04/03 09:34:18;;;;;;;17.60;14.07;;;6.20;99.90;;;;;;4930556;28;20042;-57
2022/04/03 09:37:04;;;;;;;19.25;15.38;;;6.00;99.90;;;;;;4931571;28;20582;-56
2022/04/03 09:39:32;;;;;;;19.55;14.43;;;5.50;99.90;;;;;;4932749;28;20705;-57
2022/04/03 09:42:05;;;;;;;20.45;15.63;;;5.10;99.90;;;;;;4933652;28;20043;-57
2022/04/03 09:44:39;;;;;;;18.40;14.30;;;4.70;99.90;;;;;;4931513;28;20062;-58
2022/04/03 09:47:29;;;;;;;19.30;14.10;;;4.30;99.90;;;;;;4932470;28;20042;-57
2022/04/03 09:49:58;;;;;;;19.73;14.43;;;3.90;99.90;;;;;;4926616;28;20049;-56
2022/04/03 09:52:54;;;;;;;21.80;13.82;;;3.70;99.90;;;;;;4933434;28;20900;-57
2022/04/03 09:55:24;;;;;;;19.38;14.50;;;3.40;99.90;;;;;;4931614;28;20046;-56
2022/04/03 09:58:05;;;;;;;22.73;17.65;;;3.10;99.90;;;;;;4930076;28;20197;-57
2022/04/03 10:00:47;;;;;;;22.50;17.00;;;3.00;99.90;;;;;;4929663;28;20215;-58
2022/04/03 10:03:14;;;;;;;25.58;18.38;;;2.80;99.90;;;;;;4925933;28;20897;-57
2022/04/03 10:05:43;;;;;;;18.60;15.07;;;2.70;99.90;;;;;;4929200;28;20039;-57
2022/04/03 10:08:11;;;;;;;17.92;14.30;;;2.60;99.90;;;;;;4926039;28;20057;-58
2022/04/03 10:10:38;;;;;;;17.92;14.05;;;2.60;99.90;;;;;;4930532;28;20038;-57
2022/04/03 10:13:06;;;;;;;19.67;14.13;;;2.50;99.90;;;;;;4930107;28;20393;-57
2022/04/03 10:15:34;;;;;;;19.48;13.90;;;2.40;99.90;;;;;;4932029;28;20034;-58
2022/04/03 10:18:02;;;;;;;20.88;14.10;;;2.40;99.90;;;;;;4930679;28;20570;-56
2022/04/03 10:20:29;;;;;;;17.98;14.55;;;2.40;99.90;;;;;;4911854;28;20438;-57
2022/04/03 10:23:01;;;;;;;21.80;15.48;;;2.40;99.90;;;;;;4927675;28;20053;-58
2022/04/03 10:25:31;;;;;;;18.90;14.63;;;2.40;99.90;;;;;;4929443;28;20087;-56
2022/04/03 10:28:02;;;;;;;16.42;12.90;;;2.40;99.90;;;;;;4930718;28;20053;-57
2022/04/03 10:30:43;;;;;;;17.30;14.35;;;2.50;99.90;;;;;;4925827;28;20050;-58
2022/04/03 10:33:23;;;;;;;15.85;12.27;;;2.40;99.90;;;;;;4932814;28;20555;-56
2022/04/03 10:36:04;;;;;;;16.55;12.70;;;2.40;99.90;;;;;;4927741;28;20054;-57
2022/04/03 10:38:59;;;;;;;15.65;12.63;;;2.40;99.90;;;;;;4932391;28;20038;-56
2022/04/03 10:41:31;;;;;;;20.90;13.68;;;2.40;99.90;;;;;;4908876;28;20050;-55
2022/04/03 10:44:16;;;;;;;14.90;11.57;;;2.40;99.90;;;;;;4914088;28;20406;-55
2022/04/03 10:47:02;;;;;;;17.02;11.93;;;2.40;99.90;;;;;;4912202;28;20053;-53
2022/04/03 10:49:31;;;;;;;18.80;13.77;;;2.40;99.90;;;;;;4916193;28;20098;-54
2022/04/03 10:52:06;;;;;;;19.10;13.75;;;2.40;99.90;;;;;;4911292;28;20238;-54
2022/04/03 10:54:42;;;;;;;17.55;13.93;;;2.40;99.90;;;;;;4927661;28;20836;-54
2022/04/03 10:57:35;;;;;;;19.65;12.65;;;2.40;99.90;;;;;;4924818;28;20138;-55
2022/04/03 11:00:12;;;;;;;20.40;14.07;;;2.40;99.90;;;;;;4932675;28;20120;-54
2022/04/03 11:02:58;;;;;;;21.50;13.37;;;2.40;99.90;;;;;;4934004;28;20042;-53
2022/04/03 11:05:25;;;;;;;17.77;12.68;;;2.40;99.90;;;;;;4934298;28;20461;-53
2022/04/03 11:08:04;;;;;;;16.77;12.68;;;2.40;99.90;;;;;;4933669;28;20046;-53
2022/04/03 11:10:52;;;;;;;19.45;14.73;;;2.40;99.90;;;;;;4936371;28;20050;-54
2022/04/03 11:13:29;;;;;;;18.60;13.68;;;2.40;99.90;;;;;;4934537;28;20129;-55
2022/04/03 11:16:09;;;;;;;16.08;12.65;;;2.30;99.90;;;;;;4935357;28;20204;-56
2022/04/03 11:18:39;;;;;;;21.35;13.80;;;2.20;99.90;;;;;;4931433;28;20120;-54
2022/04/03 11:21:10;;;;;;;18.13;13.35;;;2.20;99.90;;;;;;4929140;28;20204;-54
2022/04/03 11:23:44;;;;;;;18.17;12.55;;;2.10;99.90;;;;;;4930109;28;20061;-54
2022/04/03 11:26:12;;;;;;;15.07;11.65;;;1.90;99.90;;;;;;4932079;28;20073;-53
2022/04/03 11:28:39;;;;;;;19.42;12.93;;;1.80;99.90;;;;;;4931987;28;20105;-54
2022/04/03 11:31:07;;;;;;;21.15;14.02;;;1.70;99.90;;;;;;4934566;28;20177;-58
2022/04/03 11:33:34;;;;;;;21.20;13.23;;;1.70;99.90;;;;;;4932896;28;20708;-57
2022/04/03 11:36:06;;;;;;;20.08;13.80;;;1.60;99.90;;;;;;4935422;28;20444;-58
2022/04/03 11:38:35;;;;;;;18.42;13.98;;;1.60;99.90;;;;;;4934794;28;20258;-56
2022/04/03 11:41:04;;;;;;;17.50;13.50;;;1.50;99.90;;;;;;4928120;28;20541;-56
2022/04/03 11:43:33;;;;;;;19.10;14.30;;;1.40;99.90;;;;;;4929982;28;20042;-57
2022/04/03 11:46:03;;;;;;;21.42;14.63;;;1.40;99.90;;;;;;4930573;28;20378;-57
2022/04/03 11:48:32;;;;;;;22.55;14.80;;;1.40;99.90;;;;;;4931180;28;20588;-56
2022/04/03 11:51:13;;;;;;;20.42;14.90;;;1.30;99.90;;;;;;4928100;28;20288;-57
2022/04/03 11:53:43;;;;;;;17.58;12.88;;;1.30;99.90;;;;;;4928748;28;20038;-56
2022/04/03 11:56:18;;;;;;;22.92;14.50;;;1.20;99.90;;;;;;4936043;28;20203;-58
2022/04/03 11:58:50;;;;;;;20.23;15.85;;;1.20;99.90;;;;;;4941227;28;20074;-58
2022/04/03 12:01:31;;;;;;;20.58;13.90;;;1.20;99.90;;;;;;4930574;28;20101;-57
2022/04/03 12:04:00;;;;;;;20.38;14.55;;;1.10;99.90;;;;;;4930659;28;20590;-57
2022/04/03 12:06:29;;;;;;;24.35;16.23;;;1.10;99.90;;;;;;4930182;28;20035;-57
2022/04/03 12:08:58;;;;;;;19.73;14.88;;;1.10;99.90;;;;;;4931027;28;20057;-58
2022/04/03 12:11:27;;;;;;;21.40;14.45;;;1.10;99.90;;;;;;4930109;28;20050;-57
2022/04/03 12:14:02;;;;;;;19.33;14.20;;;1.10;99.90;;;;;;4930268;28;20057;-57
2022/04/03 12:16:34;;;;;;;22.67;16.15;;;1.20;99.90;;;;;;4939007;28;20843;-57
2022/04/03 12:19:02;;;;;;;20.17;14.73;;;1.20;99.90;;;;;;4943282;28;20042;-57
2022/04/03 12:21:47;;;;;;;20.67;14.55;;;1.30;99.90;;;;;;4940765;28;20041;-58
2022/04/03 12:24:16;;;;;;;20.60;14.45;;;1.40;99.90;;;;;;4940977;28;20050;-58
2022/04/03 12:26:45;;;;;;;20.55;14.50;;;1.50;99.90;;;;;;4942851;28;20034;-55
2022/04/03 12:29:13;;;;;;;20.80;14.65;;;1.50;99.90;;;;;;4943428;28;20091;-56
2022/04/03 12:31:41;;;;;;;18.92;13.80;;;1.60;99.90;;;;;;4910841;28;20062;-56
2022/04/03 12:34:13;;;;;;;19.30;14.18;;;1.60;99.90;;;;;;4912292;28;20071;-54
2022/04/03 12:36:41;;;;;;;20.63;14.63;;;1.60;99.90;;;;;;4925911;28;20196;-54
2022/04/03 12:39:31;;;;;;;19.38;13.35;;;1.60;99.90;;;;;;4927449;28;20031;-54
2022/04/03 12:42:11;;;;;;;18.90;14.23;;;1.60;99.90;;;;;;4933702;28;20043;-54